Aviation Digital Data Service (ADDS)

Output produced by TAFs form (1229 UTC 20 July 2018)
found at http://aviationweather.gov/adds/tafs/
 
KJQF 201150Z 08005KT 10SM SKC 23/19 A3010